This is the latest recevied weather packets stored in our database for station/object EA3KZ-1. If no packets are shown the sender has not sent any weather packets the latest 10 day(s).
| Time | Temp. | Humidity | Pressure | Rain* | Wind** | Luminosity | Snow |
|---|---|---|---|---|---|---|---|
| 1787478359 | 27.22° C | 67% | 1014.1 hPa | 0 mm | - | - | - |
| 1787477756 | 26.67° C | 68% | 1014 hPa | 0 mm | - | - | - |
| 1787477154 | 26.67° C | 68% | 1014 hPa | 0 mm | - | - | - |
| 1787476551 | 26.11° C | 69% | 1014 hPa | 0 mm | - | - | - |
| 1787475948 | 26.11° C | 69% | 1014.1 hPa | 0 mm | - | - | - |
| 1787475346 | 26.67° C | 69% | 1013.9 hPa | 0 mm | - | - | - |
| 1787474743 | 26.11° C | 69% | 1014 hPa | 0 mm | - | - | - |
| 1787474141 | 26.11° C | 69% | 1014.1 hPa | 0 mm | - | - | - |
| 1787473538 | 25.56° C | 69% | 1013.9 hPa | 0 mm | - | - | - |
| 1787472936 | 25° C | 70% | 1014 hPa | 0 mm | - | - | - |
| 1787472333 | 25.56° C | 69% | 1013.9 hPa | 0 mm | - | - | - |
| 1787471730 | 25° C | 71% | 1014 hPa | 0 mm | - | - | - |
| 1787471128 | 24.44° C | 71% | 1014 hPa | 0 mm | - | - | - |
| 1787470525 | 24.44° C | 72% | 1014 hPa | 0 mm | - | - | - |
| 1787469923 | 23.89° C | 73% | 1013.8 hPa | 0 mm | - | - | - |
| 1787469320 | 23.89° C | 71% | 1013.9 hPa | 0 mm | - | - | - |
| 1787468717 | 23.89° C | 71% | 1013.7 hPa | 0 mm | - | - | - |
| 1787468115 | 23.33° C | 71% | 1013.7 hPa | 0 mm | - | - | - |
| 1787467572 | 22.78° C | 72% | 1013.7 hPa | 0 mm | - | - | - |
| 1787466970 | 22.22° C | 74% | 1013.4 hPa | 0 mm | - | - | - |
| 1787466367 | 21.67° C | 76% | 1013.5 hPa | 0 mm | - | - | - |
| 1787465764 | 21.11° C | 77% | 1013.5 hPa | 0 mm | - | - | - |
| 1787465162 | 21.11° C | 77% | 1013.4 hPa | 0 mm | - | - | - |
| 1787464559 | 20.56° C | 78% | 1013.5 hPa | 0 mm | - | - | - |
| 1787463957 | 20° C | 82% | 1013.4 hPa | 0 mm | - | - | - |
* Rain latest hour (hover to see other rain measurements)
** Current wind speed in m/s (hover to see current wind gust speed)